sensor_id;sensor_type;location;lat;lon;timestamp;pressure;altitude;pressure_sealevel;temperature;humidity
7668;BME280;3876;42.204;24.686;2023-05-09T00:00:48;99796.16;;;12.73;100.00
7668;BME280;3876;42.204;24.686;2023-05-09T00:03:16;99796.16;;;12.73;100.00
7668;BME280;3876;42.204;24.686;2023-05-09T00:05:43;99794.31;;;12.76;100.00
7668;BME280;3876;42.204;24.686;2023-05-09T00:08:10;99798.72;;;12.73;100.00
7668;BME280;3876;42.204;24.686;2023-05-09T00:10:37;99802.22;;;12.70;100.00
7668;BME280;3876;42.204;24.686;2023-05-09T00:13:03;99804.00;;;12.68;100.00
7668;BME280;3876;42.204;24.686;2023-05-09T00:15:31;99799.41;;;12.78;100.00
7668;BME280;3876;42.204;24.686;2023-05-09T00:17:58;99810.19;;;12.89;100.00
7668;BME280;3876;42.204;24.686;2023-05-09T00:20:26;99806.13;;;12.82;100.00
7668;BME280;3876;42.204;24.686;2023-05-09T00:22:52;99803.59;;;12.80;100.00
7668;BME280;3876;42.204;24.686;2023-05-09T00:25:19;99795.94;;;12.79;100.00
7668;BME280;3876;42.204;24.686;2023-05-09T00:27:46;99802.66;;;12.83;100.00
7668;BME280;3876;42.204;24.686;2023-05-09T00:30:13;99804.22;;;12.87;100.00
7668;BME280;3876;42.204;24.686;2023-05-09T00:32:39;99801.84;;;12.82;100.00
7668;BME280;3876;42.204;24.686;2023-05-09T00:35:07;99800.88;;;12.85;100.00
7668;BME280;3876;42.204;24.686;2023-05-09T00:37:35;99799.09;;;12.87;100.00
7668;BME280;3876;42.204;24.686;2023-05-09T00:40:03;99811.22;;;12.83;100.00
7668;BME280;3876;42.204;24.686;2023-05-09T00:42:30;99815.47;;;12.84;100.00
7668;BME280;3876;42.204;24.686;2023-05-09T00:44:57;99814.53;;;12.87;100.00
7668;BME280;3876;42.204;24.686;2023-05-09T00:47:26;99806.22;;;12.79;100.00
7668;BME280;3876;42.204;24.686;2023-05-09T00:49:53;99811.09;;;12.86;100.00
7668;BME280;3876;42.204;24.686;2023-05-09T00:52:21;99821.28;;;12.89;100.00
7668;BME280;3876;42.204;24.686;2023-05-09T00:54:52;99814.41;;;12.90;100.00
7668;BME280;3876;42.204;24.686;2023-05-09T00:57:19;99813.69;;;12.86;100.00
7668;BME280;3876;42.204;24.686;2023-05-09T00:59:45;99823.22;;;12.83;100.00
7668;BME280;3876;42.204;24.686;2023-05-09T01:02:12;99825.03;;;12.81;100.00
7668;BME280;3876;42.204;24.686;2023-05-09T01:04:39;99816.63;;;12.76;100.00
7668;BME280;3876;42.204;24.686;2023-05-09T01:07:11;99818.38;;;12.74;100.00
7668;BME280;3876;42.204;24.686;2023-05-09T01:09:44;99820.06;;;12.75;100.00
7668;BME280;3876;42.204;24.686;2023-05-09T01:12:22;99825.13;;;12.78;100.00
7668;BME280;3876;42.204;24.686;2023-05-09T01:14:56;99829.69;;;12.70;100.00
7668;BME280;3876;42.204;24.686;2023-05-09T01:17:30;99817.94;;;12.61;100.00
7668;BME280;3876;42.204;24.686;2023-05-09T01:20:05;99826.38;;;12.66;100.00
7668;BME280;3876;42.204;24.686;2023-05-09T01:22:36;99808.78;;;12.52;100.00
7668;BME280;3876;42.204;24.686;2023-05-09T01:25:19;99827.28;;;12.63;100.00
7668;BME280;3876;42.204;24.686;2023-05-09T01:28:06;99831.41;;;12.69;100.00
7668;BME280;3876;42.204;24.686;2023-05-09T01:30:36;99820.47;;;12.62;100.00
7668;BME280;3876;42.204;24.686;2023-05-09T01:33:06;99821.25;;;12.64;100.00
7668;BME280;3876;42.204;24.686;2023-05-09T01:35:36;99822.03;;;12.67;100.00
7668;BME280;3876;42.204;24.686;2023-05-09T01:38:08;99815.22;;;12.66;100.00
7668;BME280;3876;42.204;24.686;2023-05-09T01:40:35;99815.53;;;12.56;100.00
7668;BME280;3876;42.204;24.686;2023-05-09T01:43:06;99831.53;;;12.64;100.00
7668;BME280;3876;42.204;24.686;2023-05-09T01:45:36;99803.03;;;12.44;100.00
7668;BME280;3876;42.204;24.686;2023-05-09T01:48:06;99822.97;;;12.64;100.00
7668;BME280;3876;42.204;24.686;2023-05-09T01:50:34;99823.94;;;12.61;100.00
7668;BME280;3876;42.204;24.686;2023-05-09T01:53:02;99820.56;;;12.59;100.00
7668;BME280;3876;42.204;24.686;2023-05-09T01:55:33;99823.06;;;12.62;100.00
7668;BME280;3876;42.204;24.686;2023-05-09T01:58:02;99825.06;;;12.53;100.00
7668;BME280;3876;42.204;24.686;2023-05-09T02:00:31;99820.84;;;12.50;100.00
7668;BME280;3876;42.204;24.686;2023-05-09T02:03:00;99818.97;;;12.55;100.00
7668;BME280;3876;42.204;24.686;2023-05-09T02:05:30;99827.38;;;12.60;100.00
7668;BME280;3876;42.204;24.686;2023-05-09T02:07:58;99831.06;;;12.53;100.00
7668;BME280;3876;42.204;24.686;2023-05-09T02:10:26;99832.63;;;12.57;100.00
7668;BME280;3876;42.204;24.686;2023-05-09T02:12:53;99830.97;;;12.56;100.00
7668;BME280;3876;42.204;24.686;2023-05-09T02:15:20;99836.13;;;12.55;100.00
7668;BME280;3876;42.204;24.686;2023-05-09T02:17:47;99838.16;;;12.45;100.00
7668;BME280;3876;42.204;24.686;2023-05-09T02:20:15;99841.69;;;12.41;100.00
7668;BME280;3876;42.204;24.686;2023-05-09T02:22:43;99835.00;;;12.37;100.00
7668;BME280;3876;42.204;24.686;2023-05-09T02:25:11;99835.59;;;12.45;100.00
7668;BME280;3876;42.204;24.686;2023-05-09T02:27:40;99831.31;;;12.44;100.00
7668;BME280;3876;42.204;24.686;2023-05-09T02:30:11;99837.97;;;12.51;100.00
7668;BME280;3876;42.204;24.686;2023-05-09T02:32:42;99844.38;;;12.38;100.00
7668;BME280;3876;42.204;24.686;2023-05-09T02:35:11;99846.16;;;12.36;100.00
7668;BME280;3876;42.204;24.686;2023-05-09T02:37:41;99852.06;;;12.38;100.00
7668;BME280;3876;42.204;24.686;2023-05-09T02:40:09;99854.63;;;12.40;100.00
7668;BME280;3876;42.204;24.686;2023-05-09T02:42:37;99848.34;;;12.48;100.00
7668;BME280;3876;42.204;24.686;2023-05-09T02:45:04;99859.69;;;12.41;100.00
7668;BME280;3876;42.204;24.686;2023-05-09T02:47:32;99852.06;;;12.38;100.00
7668;BME280;3876;42.204;24.686;2023-05-09T02:49:58;99860.69;;;12.37;100.00
7668;BME280;3876;42.204;24.686;2023-05-09T02:52:25;99847.00;;;12.37;100.00
7668;BME280;3876;42.204;24.686;2023-05-09T02:54:53;99860.50;;;12.43;100.00
7668;BME280;3876;42.204;24.686;2023-05-09T02:57:20;99865.59;;;12.45;100.00
7668;BME280;3876;42.204;24.686;2023-05-09T02:59:47;99866.41;;;12.47;100.00
7668;BME280;3876;42.204;24.686;2023-05-09T03:02:14;99868.06;;;12.48;100.00
7668;BME280;3876;42.204;24.686;2023-05-09T03:04:40;99862.09;;;12.47;100.00
7668;BME280;3876;42.204;24.686;2023-05-09T03:07:08;99871.69;;;12.42;100.00
7668;BME280;3876;42.204;24.686;2023-05-09T03:09:35;99869.94;;;12.43;100.00
7668;BME280;3876;42.204;24.686;2023-05-09T03:12:04;99872.56;;;12.41;100.00
7668;BME280;3876;42.204;24.686;2023-05-09T03:14:30;99862.56;;;12.32;100.00
7668;BME280;3876;42.204;24.686;2023-05-09T03:16:57;99875.22;;;12.38;100.00
7668;BME280;3876;42.204;24.686;2023-05-09T03:19:24;99874.25;;;12.42;100.00
7668;BME280;3876;42.204;24.686;2023-05-09T03:21:51;99876.03;;;12.40;100.00
7668;BME280;3876;42.204;24.686;2023-05-09T03:24:18;99874.63;;;12.30;100.00
7668;BME280;3876;42.204;24.686;2023-05-09T03:26:44;99884.06;;;12.30;100.00
7668;BME280;3876;42.204;24.686;2023-05-09T03:29:13;99892.38;;;12.38;100.00
7668;BME280;3876;42.204;24.686;2023-05-09T03:31:39;99898.28;;;12.41;100.00
7668;BME280;3876;42.204;24.686;2023-05-09T03:34:06;99899.13;;;12.42;100.00
7668;BME280;3876;42.204;24.686;2023-05-09T03:36:37;99898.94;;;12.48;100.00
7668;BME280;3876;42.204;24.686;2023-05-09T03:39:04;99899.69;;;12.51;100.00
7668;BME280;3876;42.204;24.686;2023-05-09T03:41:30;99897.06;;;12.53;100.00
7668;BME280;3876;42.204;24.686;2023-05-09T03:43:57;99899.69;;;12.51;100.00
7668;BME280;3876;42.204;24.686;2023-05-09T03:46:25;99900.56;;;12.50;100.00
7668;BME280;3876;42.204;24.686;2023-05-09T03:48:52;99903.97;;;12.51;100.00
7668;BME280;3876;42.204;24.686;2023-05-09T03:51:18;99882.94;;;12.38;100.00
7668;BME280;3876;42.204;24.686;2023-05-09T03:53:46;99896.50;;;12.43;100.00
7668;BME280;3876;42.204;24.686;2023-05-09T03:56:13;99908.88;;;12.60;100.00
7668;BME280;3876;42.204;24.686;2023-05-09T03:58:39;99916.34;;;12.68;100.00
7668;BME280;3876;42.204;24.686;2023-05-09T04:01:06;99918.13;;;12.66;100.00
7668;BME280;3876;42.204;24.686;2023-05-09T04:03:34;99916.44;;;12.64;100.00
7668;BME280;3876;42.204;24.686;2023-05-09T04:06:02;99925.84;;;12.66;100.00
7668;BME280;3876;42.204;24.686;2023-05-09T04:08:29;99920.53;;;12.70;100.00
7668;BME280;3876;42.204;24.686;2023-05-09T04:10:55;99918.69;;;12.75;100.00
7668;BME280;3876;42.204;24.686;2023-05-09T04:13:22;99917.22;;;12.67;100.00
7668;BME280;3876;42.204;24.686;2023-05-09T04:15:49;99921.47;;;12.68;100.00
7668;BME280;3876;42.204;24.686;2023-05-09T04:18:16;99920.03;;;12.59;100.00
7668;BME280;3876;42.204;24.686;2023-05-09T04:20:44;99925.94;;;12.62;100.00
7668;BME280;3876;42.204;24.686;2023-05-09T04:23:10;99921.56;;;12.64;100.00
7668;BME280;3876;42.204;24.686;2023-05-09T04:25:37;99918.91;;;12.68;100.00
7668;BME280;3876;42.204;24.686;2023-05-09T04:28:04;99921.47;;;12.68;100.00
7668;BME280;3876;42.204;24.686;2023-05-09T04:30:31;99923.25;;;12.66;100.00
7668;BME280;3876;42.204;24.686;2023-05-09T04:32:58;99917.38;;;12.62;100.00
7668;BME280;3876;42.204;24.686;2023-05-09T04:35:24;99915.75;;;12.59;100.00
7668;BME280;3876;42.204;24.686;2023-05-09T04:37:52;99920.63;;;12.67;100.00
7668;BME280;3876;42.204;24.686;2023-05-09T04:40:19;99921.94;;;12.80;100.00
7668;BME280;3876;42.204;24.686;2023-05-09T04:42:46;99925.69;;;12.70;100.00
7668;BME280;3876;42.204;24.686;2023-05-09T04:45:13;99922.44;;;12.63;100.00
7668;BME280;3876;42.204;24.686;2023-05-09T04:47:39;99928.50;;;12.62;100.00
7668;BME280;3876;42.204;24.686;2023-05-09T04:50:07;99927.69;;;12.60;100.00
7668;BME280;3876;42.204;24.686;2023-05-09T04:52:34;99931.09;;;12.61;100.00
7668;BME280;3876;42.204;24.686;2023-05-09T04:55:02;99930.25;;;12.60;100.00
7668;BME280;3876;42.204;24.686;2023-05-09T04:57:28;99934.44;;;12.64;100.00
7668;BME280;3876;42.204;24.686;2023-05-09T04:59:58;99937.00;;;12.64;100.00
7668;BME280;3876;42.204;24.686;2023-05-09T05:02:24;99935.22;;;12.67;100.00
7668;BME280;3876;42.204;24.686;2023-05-09T05:04:51;99935.22;;;12.67;100.00
7668;BME280;3876;42.204;24.686;2023-05-09T05:07:18;99938.78;;;12.62;100.00
7668;BME280;3876;42.204;24.686;2023-05-09T05:09:44;99942.25;;;12.61;100.00
7668;BME280;3876;42.204;24.686;2023-05-09T05:12:12;99933.94;;;12.53;100.00
7668;BME280;3876;42.204;24.686;2023-05-09T05:14:39;99942.53;;;12.52;100.00
7668;BME280;3876;42.204;24.686;2023-05-09T05:17:06;99936.50;;;12.53;100.00
7668;BME280;3876;42.204;24.686;2023-05-09T05:19:33;99928.25;;;12.42;100.00
7668;BME280;3876;42.204;24.686;2023-05-09T05:21:59;99939.06;;;12.53;100.00
7668;BME280;3876;42.204;24.686;2023-05-09T05:24:26;99943.41;;;12.51;100.00
7668;BME280;3876;42.204;24.686;2023-05-09T05:26:53;99937.56;;;12.46;100.00
7668;BME280;3876;42.204;24.686;2023-05-09T05:29:21;99942.47;;;12.54;100.00
7668;BME280;3876;42.204;24.686;2023-05-09T05:31:48;99945.13;;;12.51;100.00
7668;BME280;3876;42.204;24.686;2023-05-09T05:34:15;99940.72;;;12.54;100.00
7668;BME280;3876;42.204;24.686;2023-05-09T05:36:42;99946.06;;;12.48;100.00
7668;BME280;3876;42.204;24.686;2023-05-09T05:39:08;99944.38;;;12.47;100.00
7668;BME280;3876;42.204;24.686;2023-05-09T05:41:35;99948.41;;;12.56;100.00
7668;BME280;3876;42.204;24.686;2023-05-09T05:44:02;99952.63;;;12.58;100.00
7668;BME280;3876;42.204;24.686;2023-05-09T05:46:30;99955.97;;;12.60;100.00
7668;BME280;3876;42.204;24.686;2023-05-09T05:48:57;99958.72;;;12.56;100.00
7668;BME280;3876;42.204;24.686;2023-05-09T05:51:23;99959.56;;;12.56;100.00
7668;BME280;3876;42.204;24.686;2023-05-09T05:53:50;99962.16;;;12.55;100.00
7668;BME280;3876;42.204;24.686;2023-05-09T05:56:17;99955.09;;;12.61;100.00
7668;BME280;3876;42.204;24.686;2023-05-09T05:58:43;99939.97;;;12.51;100.00
7668;BME280;3876;42.204;24.686;2023-05-09T06:01:10;99957.50;;;12.68;100.00
7668;BME280;3876;42.204;24.686;2023-05-09T06:03:39;99967.03;;;12.64;100.00
7668;BME280;3876;42.204;24.686;2023-05-09T06:06:06;99959.47;;;12.59;100.00
7668;BME280;3876;42.204;24.686;2023-05-09T06:08:33;99952.72;;;12.55;100.00
7668;BME280;3876;42.204;24.686;2023-05-09T06:11:00;99953.31;;;12.63;100.00
7668;BME280;3876;42.204;24.686;2023-05-09T06:13:27;99955.66;;;12.73;100.00
7668;BME280;3876;42.204;24.686;2023-05-09T06:15:54;99955.16;;;12.60;100.00
7668;BME280;3876;42.204;24.686;2023-05-09T06:18:21;99957.78;;;12.58;100.00
7668;BME280;3876;42.204;24.686;2023-05-09T06:20:49;99948.44;;;12.54;100.00
7668;BME280;3876;42.204;24.686;2023-05-09T06:23:15;99958.66;;;12.57;100.00
7668;BME280;3876;42.204;24.686;2023-05-09T06:25:46;99959.28;;;12.66;100.00
7668;BME280;3876;42.204;24.686;2023-05-09T06:28:13;99950.75;;;12.63;100.00
7668;BME280;3876;42.204;24.686;2023-05-09T06:30:40;99958.44;;;12.65;100.00
7668;BME280;3876;42.204;24.686;2023-05-09T06:33:06;99942.31;;;12.60;100.00
7668;BME280;3876;42.204;24.686;2023-05-09T06:35:33;99949.19;;;12.59;100.00
7668;BME280;3876;42.204;24.686;2023-05-09T06:38:01;99951.03;;;12.54;100.00
7668;BME280;3876;42.204;24.686;2023-05-09T06:40:28;99952.81;;;12.52;100.00
7668;BME280;3876;42.204;24.686;2023-05-09T06:42:54;99954.50;;;12.53;100.00
7668;BME280;3876;42.204;24.686;2023-05-09T06:45:21;99963.00;;;12.55;100.00
7668;BME280;3876;42.204;24.686;2023-05-09T06:47:48;99945.88;;;12.54;100.00
7668;BME280;3876;42.204;24.686;2023-05-09T06:50:15;99950.09;;;12.57;100.00
7668;BME280;3876;42.204;24.686;2023-05-09T06:52:41;99947.47;;;12.58;100.00
7668;BME280;3876;42.204;24.686;2023-05-09T06:55:10;99948.94;;;12.67;100.00
7668;BME280;3876;42.204;24.686;2023-05-09T06:57:37;99962.63;;;12.68;100.00
7668;BME280;3876;42.204;24.686;2023-05-09T07:00:05;99961.88;;;12.64;100.00
7668;BME280;3876;42.204;24.686;2023-05-09T07:02:32;99950.84;;;12.60;100.00
7668;BME280;3876;42.204;24.686;2023-05-09T07:04:58;99974.53;;;12.72;100.00
7668;BME280;3876;42.204;24.686;2023-05-09T07:07:25;99965.84;;;12.76;100.00
7668;BME280;3876;42.204;24.686;2023-05-09T07:09:52;99967.25;;;12.86;100.00
7668;BME280;3876;42.204;24.686;2023-05-09T07:12:20;99968.06;;;12.86;100.00
7668;BME280;3876;42.204;24.686;2023-05-09T07:14:47;99974.16;;;12.84;100.00
7668;BME280;3876;42.204;24.686;2023-05-09T07:17:13;99971.50;;;12.87;100.00
7668;BME280;3876;42.204;24.686;2023-05-09T07:19:40;99973.88;;;12.93;100.00
7668;BME280;3876;42.204;24.686;2023-05-09T07:22:06;99980.41;;;13.03;100.00
7668;BME280;3876;42.204;24.686;2023-05-09T07:24:33;99974.69;;;12.95;100.00
7668;BME280;3876;42.204;24.686;2023-05-09T07:27:01;99962.97;;;12.85;100.00
7668;BME280;3876;42.204;24.686;2023-05-09T07:29:29;99966.78;;;13.01;100.00
7668;BME280;3876;42.204;24.686;2023-05-09T07:31:56;99967.81;;;12.95;100.00
7668;BME280;3876;42.204;24.686;2023-05-09T07:34:23;99970.41;;;12.94;100.00
7668;BME280;3876;42.204;24.686;2023-05-09T07:36:50;99964.31;;;12.96;100.00
7668;BME280;3876;42.204;24.686;2023-05-09T07:39:16;99968.53;;;12.99;100.00
7668;BME280;3876;42.204;24.686;2023-05-09T07:41:43;99966.78;;;13.01;100.00
7668;BME280;3876;42.204;24.686;2023-05-09T07:44:10;99966.06;;;12.96;100.00
7668;BME280;3876;42.204;24.686;2023-05-09T07:46:38;99970.09;;;13.04;100.00
7668;BME280;3876;42.204;24.686;2023-05-09T07:49:06;99971.81;;;13.04;100.00
7668;BME280;3876;42.204;24.686;2023-05-09T07:51:33;99973.53;;;13.03;100.00
7668;BME280;3876;42.204;24.686;2023-05-09T07:54:00;99980.28;;;13.07;100.00
7668;BME280;3876;42.204;24.686;2023-05-09T07:56:26;99978.44;;;13.12;100.00
7668;BME280;3876;42.204;24.686;2023-05-09T07:58:53;99974.13;;;13.13;100.00
7668;BME280;3876;42.204;24.686;2023-05-09T08:01:20;99982.06;;;13.05;100.00
7668;BME280;3876;42.204;24.686;2023-05-09T08:03:48;99987.06;;;13.11;100.00
7668;BME280;3876;42.204;24.686;2023-05-09T08:06:14;99987.84;;;13.13;100.00
7668;BME280;3876;42.204;24.686;2023-05-09T08:08:41;99982.03;;;13.08;100.00
7668;BME280;3876;42.204;24.686;2023-05-09T08:11:08;99985.16;;;13.18;100.00
7668;BME280;3876;42.204;24.686;2023-05-09T08:13:34;99983.56;;;13.14;100.00
7668;BME280;3876;42.204;24.686;2023-05-09T08:16:01;99981.97;;;13.10;100.00
7668;BME280;3876;42.204;24.686;2023-05-09T08:18:28;99982.50;;;13.20;100.00
7668;BME280;3876;42.204;24.686;2023-05-09T08:20:56;99982.59;;;13.17;100.00
7668;BME280;3876;42.204;24.686;2023-05-09T08:23:24;99977.47;;;13.17;100.00
7668;BME280;3876;42.204;24.686;2023-05-09T08:25:52;99978.78;;;13.28;100.00
7668;BME280;3876;42.204;24.686;2023-05-09T08:28:19;99970.47;;;13.20;100.00
7668;BME280;3876;42.204;24.686;2023-05-09T08:30:48;99984.09;;;13.24;100.00
7668;BME280;3876;42.204;24.686;2023-05-09T08:33:15;99980.72;;;13.22;100.00
7668;BME280;3876;42.204;24.686;2023-05-09T08:35:42;99973.00;;;13.22;100.00
7668;BME280;3876;42.204;24.686;2023-05-09T08:38:10;99975.66;;;13.19;100.00
7668;BME280;3876;42.204;24.686;2023-05-09T08:40:37;99977.47;;;13.17;100.00
7668;BME280;3876;42.204;24.686;2023-05-09T08:43:05;99976.41;;;13.22;100.00
7668;BME280;3876;42.204;24.686;2023-05-09T08:45:34;99978.84;;;13.27;100.00
7668;BME280;3876;42.204;24.686;2023-05-09T08:48:05;99978.84;;;13.27;100.00
7668;BME280;3876;42.204;24.686;2023-05-09T08:50:33;99975.56;;;13.22;100.00
7668;BME280;3876;42.204;24.686;2023-05-09T08:53:00;99966.97;;;13.23;100.00
7668;BME280;3876;42.204;24.686;2023-05-09T08:55:29;99966.72;;;13.30;100.00
7668;BME280;3876;42.204;24.686;2023-05-09T08:57:56;99972.84;;;13.26;100.00
7668;BME280;3876;42.204;24.686;2023-05-09T09:00:24;99966.84;;;13.27;100.00
7668;BME280;3876;42.204;24.686;2023-05-09T09:02:53;99965.81;;;13.31;100.00
7668;BME280;3876;42.204;24.686;2023-05-09T09:05:22;99963.22;;;13.33;100.00
7668;BME280;3876;42.204;24.686;2023-05-09T09:07:49;99963.84;;;13.39;100.00
7668;BME280;3876;42.204;24.686;2023-05-09T09:10:16;99945.72;;;13.42;100.00
7668;BME280;3876;42.204;24.686;2023-05-09T09:12:47;99952.81;;;13.60;100.00
7668;BME280;3876;42.204;24.686;2023-05-09T09:15:14;99954.94;;;13.74;100.00
7668;BME280;3876;42.204;24.686;2023-05-09T09:17:45;99949.84;;;13.73;100.00
7668;BME280;3876;42.204;24.686;2023-05-09T09:20:15;99949.16;;;13.67;100.00
7668;BME280;3876;42.204;24.686;2023-05-09T09:22:46;99948.69;;;13.56;100.00
7668;BME280;3876;42.204;24.686;2023-05-09T09:25:13;99931.03;;;13.44;100.00
7668;BME280;3876;42.204;24.686;2023-05-09T09:27:40;99953.94;;;13.53;100.00
7668;BME280;3876;42.204;24.686;2023-05-09T09:30:10;99954.72;;;13.55;100.00
7668;BME280;3876;42.204;24.686;2023-05-09T09:32:37;99960.94;;;13.50;100.00
7668;BME280;3876;42.204;24.686;2023-05-09T09:35:05;99948.44;;;13.38;100.00
7668;BME280;3876;42.204;24.686;2023-05-09T09:37:32;99961.03;;;13.47;100.00
7668;BME280;3876;42.204;24.686;2023-05-09T09:39:59;99961.94;;;13.44;100.00
7668;BME280;3876;42.204;24.686;2023-05-09T09:42:26;99963.53;;;13.48;100.00
7668;BME280;3876;42.204;24.686;2023-05-09T09:45:10;99968.59;;;13.51;100.00
7668;BME280;3876;42.204;24.686;2023-05-09T09:47:38;99978.03;;;13.51;100.00
7668;BME280;3876;42.204;24.686;2023-05-09T09:50:12;99974.50;;;13.55;100.00
7668;BME280;3876;42.204;24.686;2023-05-09T09:52:44;99965.22;;;13.49;100.00
7668;BME280;3876;42.204;24.686;2023-05-09T09:55:14;99963.44;;;13.51;100.00
7668;BME280;3876;42.204;24.686;2023-05-09T09:57:41;99951.47;;;13.50;100.00
7668;BME280;3876;42.204;24.686;2023-05-09T10:00:12;99965.59;;;13.63;100.00
7668;BME280;3876;42.204;24.686;2023-05-09T10:02:47;99960.75;;;13.54;100.00
7668;BME280;3876;42.204;24.686;2023-05-09T10:05:18;99951.53;;;13.47;100.00
7668;BME280;3876;42.204;24.686;2023-05-09T10:07:49;99978.66;;;13.59;100.00
7668;BME280;3876;42.204;24.686;2023-05-09T10:10:17;99965.88;;;13.56;100.00
7668;BME280;3876;42.204;24.686;2023-05-09T10:12:44;99969.34;;;13.55;100.00
7668;BME280;3876;42.204;24.686;2023-05-09T10:15:15;99967.75;;;13.51;100.00
7668;BME280;3876;42.204;24.686;2023-05-09T10:17:44;99966.94;;;13.50;100.00
7668;BME280;3876;42.204;24.686;2023-05-09T10:20:12;99943.44;;;13.33;100.00
7668;BME280;3876;42.204;24.686;2023-05-09T10:22:39;99963.34;;;13.54;100.00
7668;BME280;3876;42.204;24.686;2023-05-09T10:25:10;99971.16;;;13.51;100.00
7668;BME280;3876;42.204;24.686;2023-05-09T10:27:41;99971.03;;;13.56;100.00
7668;BME280;3876;42.204;24.686;2023-05-09T10:30:15;99960.44;;;13.63;100.00
7668;BME280;3876;42.204;24.686;2023-05-09T10:32:47;99964.19;;;13.80;100.00
7668;BME280;3876;42.204;24.686;2023-05-09T10:35:16;99967.13;;;13.94;100.00
7668;BME280;3876;42.204;24.686;2023-05-09T10:37:43;99969.34;;;14.04;100.00
7668;BME280;3876;42.204;24.686;2023-05-09T10:40:11;99971.75;;;14.09;100.00
7668;BME280;3876;42.204;24.686;2023-05-09T10:42:40;99976.38;;;14.24;100.00
7668;BME280;3876;42.204;24.686;2023-05-09T10:45:08;99978.38;;;14.16;100.00
7668;BME280;3876;42.204;24.686;2023-05-09T10:47:37;99974.06;;;14.16;100.00
7668;BME280;3876;42.204;24.686;2023-05-09T10:50:05;99973.97;;;14.19;100.00
7668;BME280;3876;42.204;24.686;2023-05-09T10:52:32;99971.63;;;14.12;100.00
7668;BME280;3876;42.204;24.686;2023-05-09T10:55:00;99981.66;;;14.21;100.00
7668;BME280;3876;42.204;24.686;2023-05-09T10:57:28;99959.88;;;14.05;100.00
7668;BME280;3876;42.204;24.686;2023-05-09T10:59:56;99969.75;;;14.17;100.00
7668;BME280;3876;42.204;24.686;2023-05-09T11:02:23;99971.56;;;14.15;100.00
7668;BME280;3876;42.204;24.686;2023-05-09T11:05:16;99968.28;;;14.10;100.00
7668;BME280;3876;42.204;24.686;2023-05-09T11:07:43;99961.50;;;14.07;100.00
7668;BME280;3876;42.204;24.686;2023-05-09T11:10:14;99963.09;;;14.11;100.00
7668;BME280;3876;42.204;24.686;2023-05-09T11:12:55;99964.34;;;14.25;100.00
7668;BME280;3876;42.204;24.686;2023-05-09T11:15:22;99968.88;;;14.41;100.00
7668;BME280;3876;42.204;24.686;2023-05-09T11:18:04;99964.22;;;14.51;100.00
7668;BME280;3876;42.204;24.686;2023-05-09T11:20:34;99959.38;;;14.66;100.00
7668;BME280;3876;42.204;24.686;2023-05-09T11:23:03;99959.13;;;14.73;100.00
7668;BME280;3876;42.204;24.686;2023-05-09T11:25:31;99952.84;;;14.80;100.00
7668;BME280;3876;42.204;24.686;2023-05-09T11:27:59;99956.50;;;14.96;100.00
7668;BME280;3876;42.204;24.686;2023-05-09T11:30:34;99963.31;;;14.97;100.00
7668;BME280;3876;42.204;24.686;2023-05-09T11:33:01;99961.75;;;14.93;100.00
7668;BME280;3876;42.204;24.686;2023-05-09T11:35:31;99961.84;;;14.91;100.00
7668;BME280;3876;42.204;24.686;2023-05-09T11:38:01;99967.59;;;14.98;100.00
7668;BME280;3876;42.204;24.686;2023-05-09T11:40:29;99968.63;;;14.94;100.00
7668;BME280;3876;42.204;24.686;2023-05-09T11:42:57;99968.38;;;15.00;100.00
7668;BME280;3876;42.204;24.686;2023-05-09T11:45:25;99973.53;;;15.00;100.00
7668;BME280;3876;42.204;24.686;2023-05-09T11:47:52;99950.00;;;14.86;100.00
7668;BME280;3876;42.204;24.686;2023-05-09T11:50:19;99962.13;;;14.84;100.00
7668;BME280;3876;42.204;24.686;2023-05-09T11:52:47;99960.22;;;14.89;100.00
7668;BME280;3876;42.204;24.686;2023-05-09T11:55:18;99963.44;;;14.72;100.00
7668;BME280;3876;42.204;24.686;2023-05-09T11:57:47;99966.31;;;14.64;100.00
7668;BME280;3876;42.204;24.686;2023-05-09T12:00:15;99960.00;;;14.71;100.00
7668;BME280;3876;42.204;24.686;2023-05-09T12:02:43;99966.06;;;14.70;100.00
7668;BME280;3876;42.204;24.686;2023-05-09T12:05:12;99963.69;;;14.66;100.00
7668;BME280;3876;42.204;24.686;2023-05-09T12:07:40;99968.00;;;14.65;100.00
7668;BME280;3876;42.204;24.686;2023-05-09T12:10:07;99956.91;;;14.63;100.00
7668;BME280;3876;42.204;24.686;2023-05-09T12:12:41;99955.25;;;14.61;100.00
7668;BME280;3876;42.204;24.686;2023-05-09T12:15:08;99958.75;;;14.60;100.00
7668;BME280;3876;42.204;24.686;2023-05-09T12:17:35;99950.50;;;14.50;100.00
7668;BME280;3876;42.204;24.686;2023-05-09T12:20:02;99948.47;;;14.58;100.00
7668;BME280;3876;42.204;24.686;2023-05-09T12:22:30;99947.13;;;14.48;100.00
7668;BME280;3876;42.204;24.686;2023-05-09T12:24:58;99942.03;;;14.47;100.00
7668;BME280;3876;42.204;24.686;2023-05-09T12:27:25;99938.00;;;14.40;100.00
7668;BME280;3876;42.204;24.686;2023-05-09T12:29:54;99937.72;;;14.47;100.00
7668;BME280;3876;42.204;24.686;2023-05-09T12:32:21;99946.78;;;14.57;100.00
7668;BME280;3876;42.204;24.686;2023-05-09T12:34:48;99942.53;;;14.56;100.00
7668;BME280;3876;42.204;24.686;2023-05-09T12:37:17;99935.44;;;14.61;100.00
7668;BME280;3876;42.204;24.686;2023-05-09T12:39:45;99933.69;;;14.63;100.00
7668;BME280;3876;42.204;24.686;2023-05-09T12:42:26;99939.72;;;14.62;100.00
7668;BME280;3876;42.204;24.686;2023-05-09T12:44:55;99928.28;;;14.69;100.00
7668;BME280;3876;42.204;24.686;2023-05-09T12:47:25;99923.97;;;14.70;100.00
7668;BME280;3876;42.204;24.686;2023-05-09T12:49:52;99929.81;;;14.73;100.00
7668;BME280;3876;42.204;24.686;2023-05-09T12:52:22;99926.22;;;14.78;100.00
7668;BME280;3876;42.204;24.686;2023-05-09T12:54:51;99931.03;;;14.87;100.00
7668;BME280;3876;42.204;24.686;2023-05-09T12:57:22;99931.88;;;14.87;100.00
7668;BME280;3876;42.204;24.686;2023-05-09T12:59:49;99925.56;;;14.94;100.00
7668;BME280;3876;42.204;24.686;2023-05-09T13:02:17;99921.16;;;14.96;100.00
7668;BME280;3876;42.204;24.686;2023-05-09T13:04:44;99916.25;;;14.90;100.00